Aviation Digital Data Service (ADDS)

Output produced by METARs form (0344 UTC 23 November 2017)
found at http://www.aviationweather.gov/adds/metars/
 
RCTP 230330Z 06021KT 9999 FEW012 BKN030 BKN045 17/13 Q1021 NOSIG RMK A3017
TAF RCTP 222300Z 2300/2406 04018KT 9999 FEW008 BKN017 BKN035 
     TEMPO 2300/2304 4000 RA SCT005 BKN008 BKN030 
     BECMG 2302/2304 05023KT 
     BECMG 2310/2312 06015KT FEW015 BKN032 
     BECMG 2400/2402 05020KT 
       
RCMQ 230330Z 02019G29KT 8000 FEW008 SCT020 20/11 Q1016 NOSIG RMK A3002
TAF AMD RCMQ 230220Z 2303/2324 02028G38KT 8000 FEW008 SCT020 TX23/2305Z TN16/2320Z 
     BECMG 2314/2317 01020G30KT FEW006 BKN020 BKN040 
     BECMG 2320/2323 36012KT FEW006 BKN010 BKN025
       
RCFN 230330Z 35007KT 310V030 9999 FEW020 BKN035 OVC060 22/17 Q1019 NOSIG RMK A3011
TAF RCFN 222300Z 2300/2324 36007KT 9999 FEW015 BKN032 
     TEMPO 2303/2309 02013KT 5000 SA 
     TEMPO 2318/2324 01005KT 
       
RCKH 230330Z 33005KT 260V050 8000 FEW016 SCT038 BKN070 24/16 Q1016 NOSIG RMK A3003
TAF RCKH 222300Z 2300/2406 36007KT 9999 FEW015 SCT045 
     TEMPO 2304/2310 35015KT 
     TEMPO 2318/2324 05005KT 4000 HZ 
     BECMG 2400/2402 34005KT 
       
RCSS 230330Z 08008KT 020V130 9000 FEW016 SCT025 BKN035 17/13 Q1022 NOSIG RMK A3018
TAF RCSS 222300Z 2300/2324 09005KT 9999 FEW015 BKN032 
     TEMPO 2301/2306 5000 RA FEW012 BKN016 BKN035 
     TEMPO 2305/2311 10010KT 
       
RCNN 230330Z 33012KT 9999 FEW012 SCT200 23/15 Q1016 NOSIG RMK A3002
TAF RCNN 222300Z 2300/2324 36014KT 9999 FEW012 SCT060 TX26/2306Z TN17/2321Z 
     BECMG 2308/2311 35010KT FEW012 BKN060 
     BECMG 2312/2315 01004KT FEW012 SCT050